Germiston, South Africa
Current Conditions -  °F | °C
As of 6:00 AM on Sunday 28 Dec 2014 (Local Time) from FAOR Reporting Station
Haze Haze  
Wind Chill: 64°   Ceiling: 200
Heat Index: 64°   Visibility: 3mi
Dew Point: 63°   Wind: 6mph
Humidity: 94%   Direction: 350°N
Pressure: 30.06"   Gusts: NA
Location:  26.16°S, 28.19°E
Report Text: FAOR 280400Z 35005KT 320V020 5000 BR BKN002 18/17 Q1018 NOSIG
Loading
Personal Weather Stations






























Interactive Weather Map New forecast layout! Learn more

10-Day Weather Forecast

Advertisements
Track Severe Weather on mobile